Time;durP1;ratioP1;P1;durP2;ratioP2;P2;SDS_P1;SDS_P2;PMS_P1;PMS_P2;Temp;Humidity;BMP_temperature;BMP_pressure;BME280_temperature;BME280_humidity;BME280_pressure;Samples;Min_cycle;Max_cycle;Signal;HPM_P1;HPM_P2
2021/10/05 05:48:57;;;;;;;7.75;2.00;;;17.30;70.70;;;;;;5742638;24;20033;-68
2021/10/05 05:51:23;;;;;;;6.47;1.70;;;17.40;71.10;;;;;;4798564;29;20058;-68
2021/10/05 05:53:49;;;;;;;10.68;2.13;;;17.30;70.70;;;;;;4823895;29;20398;-68
2021/10/05 05:56:15;;;;;;;8.48;1.40;;;17.20;71.40;;;;;;4808658;29;20145;-67
2021/10/05 05:58:40;;;;;;;9.35;1.73;;;17.10;71.00;;;;;;4825731;29;20061;-68
2021/10/05 06:01:06;;;;;;;10.43;2.05;;;17.00;71.10;;;;;;4819552;29;20055;-68
2021/10/05 06:03:32;;;;;;;8.18;1.80;;;16.90;71.60;;;;;;4813515;29;20047;-69
2021/10/05 06:05:58;;;;;;;6.38;1.42;;;16.90;72.50;;;;;;4791727;29;20055;-68
2021/10/05 06:08:23;;;;;;;12.73;1.73;;;17.00;72.90;;;;;;4807779;29;20043;-68
2021/10/05 06:10:49;;;;;;;7.80;2.30;;;17.10;73.10;;;;;;4807839;29;20050;-70
2021/10/05 06:13:15;;;;;;;10.98;2.85;;;17.10;72.80;;;;;;4803081;29;20057;-70
2021/10/05 06:15:41;;;;;;;5.80;2.72;;;17.20;72.10;;;;;;4825661;29;20077;-70
2021/10/05 06:18:06;;;;;;;11.45;3.38;;;17.20;71.00;;;;;;4825933;29;20450;-71
2021/10/05 06:20:33;;;;;;;7.82;3.53;;;17.20;70.00;;;;;;4823565;29;20063;-67
2021/10/05 06:22:58;;;;;;;8.93;3.47;;;17.20;69.30;;;;;;4807741;29;20056;-70
2021/10/05 06:25:27;;;;;;;6.47;3.08;;;17.20;68.60;;;;;;4815841;29;20058;-70
2021/10/05 06:27:56;;;;;;;9.00;3.47;;;17.20;67.80;;;;;;4825696;29;20054;-72
2021/10/05 06:30:22;;;;;;;8.82;2.95;;;17.20;67.40;;;;;;4825390;29;20053;-73
2021/10/05 06:32:53;;;;;;;6.10;3.03;;;17.20;67.20;;;;;;4825736;29;20165;-69
2021/10/05 06:35:24;;;;;;;9.55;2.70;;;17.20;68.10;;;;;;4824700;29;20054;-69
2021/10/05 06:37:53;;;;;;;7.50;2.30;;;17.10;68.30;;;;;;4825683;29;20090;-72
2021/10/05 06:40:21;;;;;;;7.15;2.28;;;17.10;68.90;;;;;;4809794;29;20134;-69
2021/10/05 06:42:47;;;;;;;6.80;2.10;;;17.00;69.20;;;;;;4827457;29;20051;-72
2021/10/05 06:45:13;;;;;;;6.07;2.55;;;17.00;69.60;;;;;;4797041;29;20438;-71
2021/10/05 06:47:39;;;;;;;3.83;2.08;;;16.90;70.10;;;;;;4794759;29;20382;-68
2021/10/05 06:50:05;;;;;;;5.72;1.90;;;16.90;70.30;;;;;;4809997;29;20063;-68
2021/10/05 06:52:31;;;;;;;5.63;1.88;;;16.90;70.60;;;;;;4810450;29;20050;-68
2021/10/05 06:54:57;;;;;;;5.88;2.38;;;16.90;70.80;;;;;;4823609;29;20043;-69
2021/10/05 06:57:23;;;;;;;6.18;2.13;;;16.90;71.00;;;;;;4828877;29;20175;-68
2021/10/05 06:59:49;;;;;;;7.10;2.30;;;16.80;71.10;;;;;;4812885;29;20101;-69
2021/10/05 07:02:15;;;;;;;5.10;1.60;;;16.80;71.30;;;;;;4828502;29;20048;-70
2021/10/05 07:04:40;;;;;;;5.32;1.80;;;16.80;71.50;;;;;;4807810;29;20150;-70
2021/10/05 07:07:06;;;;;;;4.18;1.73;;;16.80;71.60;;;;;;4827621;29;20184;-70
2021/10/05 07:09:32;;;;;;;5.85;2.22;;;16.80;71.60;;;;;;4828185;29;20145;-69
2021/10/05 07:11:58;;;;;;;6.00;2.03;;;16.80;71.50;;;;;;4828455;29;20130;-70
2021/10/05 07:14:23;;;;;;;5.60;2.03;;;16.80;71.50;;;;;;4812384;29;20058;-72
2021/10/05 07:16:49;;;;;;;5.35;2.10;;;16.80;71.40;;;;;;4828488;29;20069;-73
2021/10/05 07:19:15;;;;;;;6.68;2.60;;;16.90;71.40;;;;;;4828358;29;20125;-72
2021/10/05 07:21:40;;;;;;;4.63;1.98;;;17.00;70.90;;;;;;4812403;29;20054;-72
2021/10/05 07:24:06;;;;;;;5.07;2.33;;;17.00;70.30;;;;;;4796612;29;20130;-73
2021/10/05 07:26:32;;;;;;;4.32;2.42;;;17.00;69.60;;;;;;4817632;29;20415;-73
2021/10/05 07:28:58;;;;;;;5.00;2.50;;;17.10;69.10;;;;;;4803282;29;20050;-72
2021/10/05 07:31:24;;;;;;;4.97;2.55;;;17.10;68.80;;;;;;4826557;29;20046;-72
2021/10/05 07:33:50;;;;;;;6.20;2.38;;;17.10;68.60;;;;;;4821932;29;20351;-74
2021/10/05 07:36:18;;;;;;;3.03;2.13;;;17.10;68.40;;;;;;4800542;29;20059;-73
2021/10/05 07:38:44;;;;;;;5.82;2.55;;;17.10;68.20;;;;;;4808974;29;20054;-72
2021/10/05 07:41:10;;;;;;;3.72;2.10;;;17.20;67.90;;;;;;4796043;29;20135;-75
2021/10/05 07:43:35;;;;;;;4.85;2.38;;;17.20;67.50;;;;;;4819322;29;20061;-74
2021/10/05 07:46:02;;;;;;;4.68;2.30;;;17.20;67.20;;;;;;4815451;29;20103;-72
2021/10/05 07:48:28;;;;;;;3.72;2.00;;;17.20;67.00;;;;;;4813024;29;20054;-72
2021/10/05 07:50:54;;;;;;;5.20;2.30;;;17.20;66.80;;;;;;4817452;29;20482;-73
2021/10/05 07:53:20;;;;;;;5.35;2.00;;;17.20;66.70;;;;;;4809602;29;20054;-72
2021/10/05 07:55:45;;;;;;;4.13;2.20;;;17.20;66.50;;;;;;4809630;29;20059;-75
2021/10/05 07:58:11;;;;;;;6.32;1.98;;;17.20;66.40;;;;;;4809540;29;20054;-75
2021/10/05 08:00:37;;;;;;;4.03;2.10;;;17.20;67.00;;;;;;4826546;29;20061;-74
2021/10/05 08:03:03;;;;;;;7.30;2.33;;;17.10;66.20;;;;;;4805779;29;20428;-74
2021/10/05 08:05:29;;;;;;;6.00;2.13;;;17.10;65.90;;;;;;4793703;29;20058;-73
2021/10/05 08:08:05;;;;;;;4.13;2.03;;;17.00;65.70;;;;;;4810180;29;20359;-75
2021/10/05 08:10:32;;;;;;;21.17;3.63;;;17.00;65.70;;;;;;4803473;29;20054;-75
2021/10/05 08:12:58;;;;;;;31.30;4.93;;;16.90;66.50;;;;;;4806463;29;20085;-68
2021/10/05 08:15:23;;;;;;;10.50;2.75;;;16.90;66.60;;;;;;4821831;29;20077;-71
2021/10/05 08:17:49;;;;;;;12.70;3.03;;;16.90;66.60;;;;;;4811173;29;20133;-70
2021/10/05 08:20:15;;;;;;;7.85;2.47;;;16.90;66.40;;;;;;4827555;29;20129;-71
2021/10/05 08:22:41;;;;;;;9.02;2.10;;;17.00;66.40;;;;;;4825464;29;20072;-70
2021/10/05 08:25:07;;;;;;;5.20;2.45;;;16.90;66.60;;;;;;4826003;29;20096;-71
2021/10/05 08:27:33;;;;;;;5.00;1.90;;;16.90;66.60;;;;;;4827607;29;20343;-69
2021/10/05 08:29:59;;;;;;;7.32;1.65;;;16.90;66.70;;;;;;4827032;29;20054;-71
2021/10/05 08:32:24;;;;;;;4.72;1.85;;;16.90;66.80;;;;;;4823461;29;20078;-70
2021/10/05 08:34:50;;;;;;;2.88;1.42;;;16.90;66.80;;;;;;4809319;29;20102;-71
2021/10/05 08:37:16;;;;;;;2.83;1.30;;;16.90;66.70;;;;;;4827309;29;20060;-70
2021/10/05 08:39:42;;;;;;;4.53;1.70;;;16.90;66.70;;;;;;4827198;29;20053;-68
2021/10/05 08:42:08;;;;;;;4.97;1.27;;;17.00;66.70;;;;;;4827017;29;20054;-69
2021/10/05 08:44:34;;;;;;;5.32;1.88;;;16.90;66.80;;;;;;4826292;29;20069;-69
2021/10/05 08:47:00;;;;;;;2.83;1.80;;;17.00;67.10;;;;;;4820273;29;20055;-69
2021/10/05 08:49:26;;;;;;;3.40;1.42;;;17.00;67.60;;;;;;4820804;29;20125;-68
2021/10/05 08:51:54;;;;;;;5.80;1.10;;;17.00;68.00;;;;;;4826835;29;20122;-71
2021/10/05 08:54:21;;;;;;;8.95;1.27;;;17.00;68.80;;;;;;4826762;29;20054;-72
2021/10/05 08:56:47;;;;;;;7.00;1.48;;;17.00;69.30;;;;;;4826447;29;20523;-68
2021/10/05 08:59:14;;;;;;;4.13;1.00;;;17.00;69.30;;;;;;4818536;29;20352;-70
2021/10/05 09:01:40;;;;;;;3.53;1.13;;;17.10;69.90;;;;;;4792710;29;20133;-69
2021/10/05 09:04:07;;;;;;;6.50;1.20;;;17.00;70.10;;;;;;4808382;29;20039;-72
2021/10/05 09:06:35;;;;;;;6.55;1.30;;;17.10;70.40;;;;;;4791955;29;20055;-71
2021/10/05 09:09:02;;;;;;;5.22;0.90;;;17.10;70.20;;;;;;4792298;29;20055;-71
2021/10/05 09:11:47;;;;;;;7.07;1.33;;;17.10;70.50;;;;;;4808327;29;20058;-71
2021/10/05 09:14:14;;;;;;;3.25;1.17;;;17.10;70.80;;;;;;4809291;29;20055;-69
2021/10/05 09:16:39;;;;;;;7.38;1.25;;;17.10;70.90;;;;;;4820608;29;20054;-71
2021/10/05 09:19:10;;;;;;;6.32;1.50;;;17.10;71.00;;;;;;4826415;29;20354;-75
2021/10/05 09:21:38;;;;;;;5.80;1.17;;;17.20;70.90;;;;;;4810948;29;20054;-71
2021/10/05 09:24:10;;;;;;;8.32;1.30;;;17.20;71.10;;;;;;4826557;29;20058;-71
2021/10/05 09:26:40;;;;;;;4.70;1.00;;;17.20;71.20;;;;;;4826190;29;20054;-73
2021/10/05 09:29:16;;;;;;;7.53;1.95;;;17.20;71.40;;;;;;4808290;29;20050;-72
2021/10/05 09:31:55;;;;;;;5.53;0.85;;;17.20;71.40;;;;;;4807741;29;20462;-71
2021/10/05 09:34:35;;;;;;;11.05;1.55;;;17.20;71.50;;;;;;4807853;29;20062;-71
2021/10/05 09:37:21;;;;;;;11.45;1.67;;;17.20;71.40;;;;;;4807882;29;20133;-71
2021/10/05 09:40:11;;;;;;;9.35;1.40;;;17.30;71.50;;;;;;4813996;29;20378;-71
2021/10/05 09:42:40;;;;;;;7.63;1.15;;;17.30;71.60;;;;;;4826103;29;20145;-72
2021/10/05 09:45:09;;;;;;;6.97;1.73;;;17.30;71.60;;;;;;4825980;29;20046;-72
2021/10/05 09:47:44;;;;;;;9.93;1.30;;;17.30;71.60;;;;;;4825259;29;20054;-71
2021/10/05 09:50:24;;;;;;;12.90;1.77;;;17.30;71.60;;;;;;4825858;29;20525;-72
2021/10/05 09:52:53;;;;;;;11.73;1.63;;;17.30;71.70;;;;;;4826033;29;20090;-70
2021/10/05 09:55:21;;;;;;;9.18;1.88;;;17.30;72.10;;;;;;4825998;29;20046;-70
2021/10/05 09:57:48;;;;;;;6.25;1.30;;;17.30;72.40;;;;;;4808307;29;20046;-70
2021/10/05 10:00:14;;;;;;;7.75;1.20;;;17.30;72.20;;;;;;4815197;29;20051;-69
2021/10/05 10:02:42;;;;;;;9.70;1.20;;;17.30;72.20;;;;;;4820221;29;20062;-69
2021/10/05 10:05:15;;;;;;;14.82;1.40;;;17.30;72.10;;;;;;4825943;29;20059;-68
2021/10/05 10:07:44;;;;;;;9.75;1.60;;;17.30;72.30;;;;;;4821797;29;20118;-69
2021/10/05 10:10:19;;;;;;;10.77;1.30;;;17.30;72.60;;;;;;4809754;29;20523;-71
2021/10/05 10:12:51;;;;;;;9.88;1.73;;;17.30;72.50;;;;;;4826129;29;20055;-71
2021/10/05 10:15:18;;;;;;;6.38;1.38;;;17.30;72.80;;;;;;4826247;29;20062;-71
2021/10/05 10:17:44;;;;;;;8.38;1.75;;;17.40;72.70;;;;;;4811317;29;20054;-69
2021/10/05 10:20:25;;;;;;;4.68;1.20;;;17.40;72.30;;;;;;4812718;29;20046;-74
2021/10/05 10:22:52;;;;;;;7.97;1.40;;;17.40;72.80;;;;;;4811143;29;20083;-71
2021/10/05 10:25:29;;;;;;;9.57;1.73;;;17.40;72.10;;;;;;4779920;29;20420;-69
2021/10/05 10:27:58;;;;;;;5.80;1.48;;;17.40;72.20;;;;;;4810458;29;20433;-69
2021/10/05 10:30:28;;;;;;;6.60;2.22;;;17.40;72.40;;;;;;4811120;29;20122;-69
2021/10/05 10:33:00;;;;;;;6.10;2.25;;;17.40;72.40;;;;;;4811284;29;20050;-69
2021/10/05 10:35:27;;;;;;;6.78;1.85;;;17.50;72.40;;;;;;4812678;29;20474;-69
2021/10/05 10:37:54;;;;;;;6.00;1.83;;;17.50;72.40;;;;;;4829233;29;20054;-70
2021/10/05 10:40:33;;;;;;;4.90;1.70;;;17.50;72.10;;;;;;4828949;29;20062;-70
2021/10/05 10:43:11;;;;;;;3.55;1.30;;;17.50;72.20;;;;;;4828767;29;20062;-70
2021/10/05 10:45:46;;;;;;;4.93;1.35;;;17.50;71.70;;;;;;4828781;29;20046;-69
2021/10/05 10:48:24;;;;;;;5.18;1.42;;;17.50;71.70;;;;;;4828093;29;20050;-69
2021/10/05 10:50:50;;;;;;;4.07;1.23;;;17.50;71.60;;;;;;4828376;29;20145;-72
2021/10/05 10:53:15;;;;;;;3.47;0.98;;;17.50;71.60;;;;;;4826302;29;20129;-72
2021/10/05 10:55:44;;;;;;;2.60;1.08;;;17.50;71.00;;;;;;4812697;29;20061;-69
2021/10/05 10:58:13;;;;;;;3.30;0.98;;;17.50;70.20;;;;;;4828341;29;20065;-69
2021/10/05 11:00:48;;;;;;;2.60;0.82;;;17.50;70.30;;;;;;4828833;29;20435;-72
2021/10/05 11:03:14;;;;;;;7.75;1.38;;;17.50;70.00;;;;;;4805790;29;20531;-73
2021/10/05 11:05:40;;;;;;;2.65;1.10;;;17.50;69.50;;;;;;4817330;29;20063;-73
2021/10/05 11:08:12;;;;;;;3.55;1.52;;;17.60;69.30;;;;;;4815207;29;20474;-72
2021/10/05 11:10:39;;;;;;;2.33;0.80;;;17.60;69.10;;;;;;4797540;29;20131;-72
2021/10/05 11:13:06;;;;;;;5.47;1.55;;;17.60;69.10;;;;;;4827948;29;20054;-71
2021/10/05 11:15:48;;;;;;;5.20;0.90;;;17.60;68.80;;;;;;4828473;29;20094;-73
2021/10/05 11:18:15;;;;;;;7.47;1.10;;;17.60;68.90;;;;;;4827847;29;20397;-70
2021/10/05 11:20:47;;;;;;;6.38;1.27;;;17.70;69.10;;;;;;4828662;29;20427;-69
2021/10/05 11:23:14;;;;;;;5.10;1.27;;;17.70;69.00;;;;;;4805696;29;20093;-70
2021/10/05 11:25:59;;;;;;;4.68;1.00;;;17.70;68.50;;;;;;4794343;29;20066;-68
2021/10/05 11:28:30;;;;;;;4.97;0.98;;;17.70;68.90;;;;;;4809946;29;20129;-70
2021/10/05 11:30:57;;;;;;;3.78;1.00;;;17.70;68.50;;;;;;4817109;29;20058;-70
2021/10/05 11:33:30;;;;;;;4.30;1.20;;;17.70;68.50;;;;;;4808579;29;20183;-71
2021/10/05 11:36:00;;;;;;;3.70;0.70;;;17.70;68.60;;;;;;4811770;29;20370;-70
2021/10/05 11:38:37;;;;;;;6.65;1.02;;;17.70;69.20;;;;;;4827179;29;20082;-71
2021/10/05 11:41:05;;;;;;;2.95;0.93;;;17.70;69.90;;;;;;4828101;29;20050;-70
2021/10/05 11:43:43;;;;;;;4.07;1.15;;;17.60;70.10;;;;;;4827734;29;20058;-71
2021/10/05 11:46:16;;;;;;;2.25;0.70;;;17.60;70.40;;;;;;4827799;29;20068;-71
2021/10/05 11:48:44;;;;;;;2.03;0.85;;;17.60;70.70;;;;;;4827996;29;20442;-70
2021/10/05 11:51:11;;;;;;;4.13;1.05;;;17.50;70.90;;;;;;4827882;29;20073;-70
2021/10/05 11:53:38;;;;;;;4.68;0.70;;;17.50;70.90;;;;;;4827850;29;20054;-71
2021/10/05 11:56:26;;;;;;;4.80;0.93;;;17.60;70.70;;;;;;4811842;29;20054;-70
2021/10/05 11:58:58;;;;;;;5.32;1.30;;;17.60;70.20;;;;;;4809794;29;20058;-70
2021/10/05 12:01:28;;;;;;;3.08;0.98;;;17.70;68.90;;;;;;4809988;29;20059;-70
2021/10/05 12:04:08;;;;;;;3.58;1.08;;;17.80;68.00;;;;;;4811939;29;20397;-70
2021/10/05 12:06:49;;;;;;;2.55;0.90;;;17.80;68.40;;;;;;4827845;29;20178;-70
2021/10/05 12:09:24;;;;;;;2.05;1.02;;;17.70;68.10;;;;;;4827509;29;20046;-71
2021/10/05 12:11:51;;;;;;;2.55;0.95;;;17.70;68.30;;;;;;4827233;29;20050;-70
2021/10/05 12:14:19;;;;;;;2.05;1.00;;;17.70;68.20;;;;;;4827650;29;20374;-71
2021/10/05 12:16:59;;;;;;;4.57;1.00;;;17.70;68.10;;;;;;4812585;29;20062;-70
2021/10/05 12:19:56;;;;;;;2.78;0.90;;;17.70;68.30;;;;;;4793802;29;20399;-70
2021/10/05 12:22:30;;;;;;;4.03;1.23;;;17.70;68.40;;;;;;4804710;29;20059;-70
2021/10/05 12:25:02;;;;;;;5.25;1.48;;;17.70;68.60;;;;;;4794073;29;20179;-70
2021/10/05 12:27:27;;;;;;;3.05;1.10;;;17.80;68.40;;;;;;4808834;29;20050;-70
2021/10/05 12:30:09;;;;;;;4.65;1.40;;;17.80;68.40;;;;;;4809136;29;20080;-69
2021/10/05 12:32:45;;;;;;;7.53;1.70;;;17.80;68.60;;;;;;4809013;29;20058;-70
2021/10/05 12:35:31;;;;;;;6.10;1.67;;;17.70;68.60;;;;;;4793063;29;20058;-71
2021/10/05 12:38:10;;;;;;;6.35;1.70;;;17.80;68.50;;;;;;4809257;29;20138;-70
2021/10/05 12:40:42;;;;;;;8.25;1.80;;;17.80;68.30;;;;;;4808328;29;20126;-69
2021/10/05 12:43:09;;;;;;;3.65;1.23;;;17.80;68.50;;;;;;4809126;29;20051;-69
2021/10/05 12:45:37;;;;;;;3.60;1.48;;;17.70;68.50;;;;;;4808689;29;20054;-69
2021/10/05 12:48:04;;;;;;;5.90;1.55;;;17.80;68.20;;;;;;4809053;29;20055;-70
2021/10/05 12:50:34;;;;;;;5.78;1.30;;;17.70;68.30;;;;;;4808829;29;20067;-72
2021/10/05 12:53:03;;;;;;;8.20;1.67;;;17.70;68.80;;;;;;4808679;29;20199;-72
2021/10/05 12:55:30;;;;;;;6.47;1.48;;;17.70;69.60;;;;;;4808776;29;20175;-72
2021/10/05 12:57:57;;;;;;;7.00;1.50;;;17.70;69.30;;;;;;4808855;29;20086;-72
2021/10/05 13:00:25;;;;;;;6.70;1.20;;;17.70;69.40;;;;;;4808532;29;20050;-72
2021/10/05 13:02:51;;;;;;;5.35;1.00;;;17.90;69.60;;;;;;4809382;29;20053;-72
2021/10/05 13:05:19;;;;;;;7.40;1.58;;;18.00;69.60;;;;;;4813772;29;20150;-73
2021/10/05 13:07:45;;;;;;;8.45;1.48;;;18.20;69.40;;;;;;4816625;29;20062;-72
2021/10/05 13:10:12;;;;;;;10.05;1.60;;;18.40;69.30;;;;;;4823761;29;20470;-72
2021/10/05 13:12:39;;;;;;;11.00;1.70;;;18.50;69.20;;;;;;4826696;29;20420;-72
2021/10/05 13:15:06;;;;;;;8.68;1.80;;;18.60;69.10;;;;;;4826338;29;20054;-71
2021/10/05 13:17:32;;;;;;;12.95;1.60;;;18.70;69.10;;;;;;4826546;29;20470;-72
2021/10/05 13:19:58;;;;;;;6.22;1.20;;;18.70;69.10;;;;;;4826459;29;20109;-71
2021/10/05 13:22:24;;;;;;;9.52;1.63;;;18.80;69.10;;;;;;4826459;29;20054;-72
2021/10/05 13:24:49;;;;;;;4.90;1.40;;;18.80;69.30;;;;;;4826736;29;20078;-72
2021/10/05 13:27:15;;;;;;;8.38;1.20;;;18.80;69.40;;;;;;4826849;29;20442;-73
2021/10/05 13:29:43;;;;;;;7.05;1.63;;;18.80;69.50;;;;;;4825929;29;20050;-71
2021/10/05 13:32:09;;;;;;;12.25;2.30;;;18.80;69.70;;;;;;4826283;29;20073;-72
2021/10/05 13:34:35;;;;;;;6.57;1.42;;;18.70;69.80;;;;;;4826523;29;20050;-73
2021/10/05 13:37:01;;;;;;;7.55;1.40;;;18.80;70.00;;;;;;4826380;29;20424;-71
2021/10/05 13:39:27;;;;;;;9.10;1.35;;;18.70;70.10;;;;;;4826404;29;20430;-71
2021/10/05 13:41:53;;;;;;;7.97;1.90;;;18.70;70.20;;;;;;4826377;29;20092;-71
2021/10/05 13:44:20;;;;;;;5.18;1.25;;;18.70;70.40;;;;;;4826093;29;20054;-73
2021/10/05 13:46:47;;;;;;;11.40;1.60;;;18.70;70.50;;;;;;4826006;29;20093;-71
2021/10/05 13:49:13;;;;;;;14.60;1.65;;;18.70;70.60;;;;;;4825990;29;20087;-73
2021/10/05 13:51:38;;;;;;;6.38;1.38;;;18.60;70.80;;;;;;4829718;29;20101;-70
2021/10/05 13:54:05;;;;;;;5.25;1.33;;;18.60;70.90;;;;;;4830244;29;20463;-71
2021/10/05 13:56:31;;;;;;;11.23;1.45;;;18.60;70.90;;;;;;4813997;29;20055;-71
2021/10/05 13:58:58;;;;;;;8.50;1.60;;;18.60;71.00;;;;;;4824048;29;20057;-71
2021/10/05 14:01:28;;;;;;;7.38;1.92;;;18.50;70.90;;;;;;4816042;29;20066;-70
2021/10/05 14:03:53;;;;;;;7.97;1.27;;;18.50;71.00;;;;;;4829745;29;20141;-71
2021/10/05 14:06:19;;;;;;;12.55;1.65;;;18.50;71.10;;;;;;4815819;29;20260;-71
2021/10/05 14:08:46;;;;;;;4.72;1.10;;;18.50;71.10;;;;;;4831790;29;20047;-71
2021/10/05 14:11:12;;;;;;;5.00;1.30;;;18.50;71.10;;;;;;4831340;29;20050;-70
2021/10/05 14:13:38;;;;;;;8.85;1.17;;;18.50;71.10;;;;;;4832356;29;20342;-71
2021/10/05 14:16:05;;;;;;;4.82;1.23;;;18.50;71.20;;;;;;4831844;29;20057;-70
2021/10/05 14:18:32;;;;;;;9.80;1.30;;;18.50;70.90;;;;;;4832457;29;20050;-70
2021/10/05 14:21:00;;;;;;;5.57;1.10;;;18.50;71.00;;;;;;4831688;29;20062;-71
2021/10/05 14:23:26;;;;;;;10.80;1.80;;;18.50;71.00;;;;;;4818397;29;20493;-70
2021/10/05 14:25:53;;;;;;;5.53;1.00;;;18.50;71.10;;;;;;4813677;29;20046;-70
2021/10/05 14:28:19;;;;;;;7.20;1.45;;;18.50;71.00;;;;;;4813475;29;20535;-71
2021/10/05 14:30:45;;;;;;;5.47;1.02;;;18.50;70.90;;;;;;4813274;29;20051;-71
2021/10/05 14:33:12;;;;;;;6.20;1.42;;;18.50;70.90;;;;;;4797770;29;20133;-71
2021/10/05 14:35:39;;;;;;;4.38;1.10;;;18.50;71.00;;;;;;4798035;29;20046;-71
2021/10/05 14:38:09;;;;;;;6.88;1.48;;;18.50;70.90;;;;;;4813820;29;20092;-71
2021/10/05 14:40:35;;;;;;;4.70;1.15;;;18.50;71.00;;;;;;4814059;29;20075;-69
2021/10/05 14:43:02;;;;;;;8.10;1.13;;;18.50;71.10;;;;;;4823795;29;20054;-70
2021/10/05 14:45:28;;;;;;;6.43;1.63;;;18.50;71.00;;;;;;4831586;29;20089;-70
2021/10/05 14:47:54;;;;;;;5.95;0.98;;;18.60;71.00;;;;;;4831167;29;20077;-74
2021/10/05 14:50:20;;;;;;;7.10;1.40;;;18.50;71.00;;;;;;4814548;29;20133;-72
2021/10/05 14:52:46;;;;;;;4.65;1.40;;;18.60;71.10;;;;;;4830981;29;20097;-70
2021/10/05 14:55:12;;;;;;;3.33;0.90;;;18.60;71.10;;;;;;4831389;29;20104;-70
2021/10/05 14:57:38;;;;;;;4.55;1.23;;;18.60;71.00;;;;;;4831853;29;20070;-70
2021/10/05 15:00:07;;;;;;;3.58;1.10;;;18.50;71.00;;;;;;4830698;29;20057;-72
2021/10/05 15:02:36;;;;;;;8.18;1.35;;;18.50;71.00;;;;;;4829273;29;20069;-70
2021/10/05 15:05:02;;;;;;;8.93;1.92;;;18.50;71.20;;;;;;4812644;29;20046;-70
2021/10/05 15:07:29;;;;;;;9.85;1.65;;;18.50;71.30;;;;;;4810055;29;20042;-75
2021/10/05 15:09:55;;;;;;;4.90;1.25;;;18.50;71.40;;;;;;4796814;29;20055;-76
2021/10/05 15:12:21;;;;;;;8.38;1.55;;;18.50;71.50;;;;;;4804567;29;20065;-77
2021/10/05 15:14:47;;;;;;;5.43;1.70;;;18.50;71.80;;;;;;4810027;29;20134;-71
2021/10/05 15:17:13;;;;;;;8.82;1.45;;;18.50;72.20;;;;;;4827069;29;20109;-70
2021/10/05 15:19:39;;;;;;;6.53;1.33;;;18.40;72.30;;;;;;4827925;29;20481;-71
2021/10/05 15:22:04;;;;;;;10.55;1.85;;;18.40;72.30;;;;;;4827087;29;20051;-76
2021/10/05 15:24:30;;;;;;;7.50;1.75;;;18.40;72.60;;;;;;4812086;29;20203;-71
2021/10/05 15:26:56;;;;;;;7.40;1.20;;;18.40;72.80;;;;;;4827769;29;20114;-78
2021/10/05 15:29:22;;;;;;;8.25;1.75;;;18.40;73.20;;;;;;4811955;29;20054;-72
2021/10/05 15:31:48;;;;;;;8.38;1.58;;;18.40;73.20;;;;;;4827738;29;20191;-76
2021/10/05 15:34:14;;;;;;;7.68;1.58;;;18.40;73.40;;;;;;4825323;29;20137;-74
2021/10/05 15:36:40;;;;;;;9.48;1.40;;;18.40;73.50;;;;;;4827610;29;20126;-72
2021/10/05 15:39:05;;;;;;;10.90;3.17;;;18.40;73.60;;;;;;4818907;29;20072;-74
2021/10/05 15:41:31;;;;;;;70.32;30.13;;;18.40;74.20;;;;;;4827836;29;20412;-74
2021/10/05 15:43:57;;;;;;;64.80;27.45;;;18.40;75.30;;;;;;4824916;29;20097;-76
2021/10/05 15:46:25;;;;;;;76.45;37.83;;;18.40;76.30;;;;;;4827987;29;20082;-74
2021/10/05 15:48:51;;;;;;;68.75;32.35;;;18.50;77.50;;;;;;4811393;29;20054;-72
2021/10/05 15:54:01;;;;;;;28.92;13.35;;;18.50;76.70;;;;;;4825700;29;20090;-71
2021/10/05 15:56:27;;;;;;;35.58;15.25;;;18.50;75.80;;;;;;4827956;29;20089;-73
2021/10/05 15:58:53;;;;;;;27.52;14.23;;;18.50;75.80;;;;;;4827735;29;20084;-70
2021/10/05 16:01:20;;;;;;;27.85;17.63;;;18.60;76.10;;;;;;4828071;29;20054;-72
2021/10/05 16:03:46;;;;;;;27.45;14.45;;;18.60;77.30;;;;;;4827870;29;20046;-73
2021/10/05 16:06:15;;;;;;;35.30;17.63;;;18.60;77.50;;;;;;4826255;29;20066;-70
2021/10/05 16:08:41;;;;;;;55.17;34.08;;;18.60;77.90;;;;;;4811647;29;20058;-70
2021/10/05 16:11:08;;;;;;;24.40;16.58;;;18.60;77.30;;;;;;4811202;29;20133;-72
2021/10/05 16:13:35;;;;;;;25.40;14.13;;;18.60;76.70;;;;;;4824398;29;20459;-72
2021/10/05 16:16:01;;;;;;;20.63;11.43;;;18.60;76.30;;;;;;4820476;29;20114;-72
2021/10/05 16:18:26;;;;;;;17.70;10.55;;;18.60;75.90;;;;;;4825293;29;20062;-71
2021/10/05 16:20:52;;;;;;;19.67;9.85;;;18.60;76.00;;;;;;4827028;29;20062;-71
2021/10/05 16:23:21;;;;;;;14.88;8.65;;;18.50;76.10;;;;;;4827215;29;20058;-72
2021/10/05 16:25:46;;;;;;;18.10;9.57;;;18.50;76.30;;;;;;4827276;29;20054;-71
2021/10/05 16:28:12;;;;;;;15.00;8.05;;;18.50;76.50;;;;;;4827415;29;20073;-71
2021/10/05 16:30:38;;;;;;;13.57;7.95;;;18.50;76.70;;;;;;4827592;29;20343;-71
2021/10/05 16:33:05;;;;;;;15.73;7.60;;;18.50;76.80;;;;;;4827037;29;20126;-71
2021/10/05 16:35:31;;;;;;;11.43;6.82;;;18.50;76.70;;;;;;4827407;29;20466;-71
2021/10/05 16:37:57;;;;;;;10.57;6.45;;;18.50;76.60;;;;;;4827137;29;20154;-70
2021/10/05 16:40:23;;;;;;;13.05;6.00;;;18.50;76.40;;;;;;4827090;29;20077;-71
2021/10/05 16:42:49;;;;;;;10.20;4.72;;;18.50;76.40;;;;;;4827260;29;20065;-70
2021/10/05 16:45:15;;;;;;;13.40;4.72;;;18.50;76.40;;;;;;4811117;29;20154;-74
2021/10/05 16:47:41;;;;;;;12.50;5.82;;;18.50;76.40;;;;;;4827077;29;20050;-71
2021/10/05 16:50:08;;;;;;;16.00;8.15;;;18.50;76.60;;;;;;4810676;29;20066;-70
2021/10/05 16:52:34;;;;;;;11.70;5.80;;;18.50;77.00;;;;;;4827048;29;20054;-69
2021/10/05 16:55:00;;;;;;;14.40;5.30;;;18.50;77.50;;;;;;4826823;29;20489;-69
2021/10/05 16:57:26;;;;;;;14.95;5.15;;;18.50;78.10;;;;;;4826810;29;20055;-69
2021/10/05 16:59:52;;;;;;;12.90;5.07;;;18.50;78.20;;;;;;4825157;29;20078;-73
2021/10/05 17:02:19;;;;;;;13.63;5.28;;;18.50;78.50;;;;;;4823895;29;20065;-69
2021/10/05 17:04:44;;;;;;;22.33;5.85;;;18.50;78.80;;;;;;4827015;29;20095;-69
2021/10/05 17:07:10;;;;;;;18.25;5.35;;;18.50;78.90;;;;;;4826662;29;20062;-70
2021/10/05 17:09:36;;;;;;;13.73;4.90;;;18.50;78.90;;;;;;4826656;29;20058;-69
2021/10/05 17:12:02;;;;;;;16.80;4.65;;;18.60;78.90;;;;;;4826766;29;20050;-69
2021/10/05 17:14:28;;;;;;;13.75;4.32;;;18.60;78.80;;;;;;4810834;29;20081;-70
2021/10/05 17:16:54;;;;;;;13.32;4.13;;;18.50;78.70;;;;;;4827073;29;20348;-69
2021/10/05 17:19:20;;;;;;;13.38;4.32;;;18.50;78.60;;;;;;4826843;29;20050;-69
2021/10/05 17:21:46;;;;;;;12.57;3.90;;;18.50;78.60;;;;;;4810468;29;20055;-70
2021/10/05 17:24:12;;;;;;;12.82;3.85;;;18.50;78.70;;;;;;4827211;29;20057;-69
2021/10/05 17:26:38;;;;;;;10.18;3.88;;;18.50;78.70;;;;;;4826141;29;20047;-72
2021/10/05 17:29:07;;;;;;;14.75;4.32;;;18.50;78.80;;;;;;4826662;29;20490;-72
2021/10/05 17:31:33;;;;;;;14.60;4.03;;;18.50;79.00;;;;;;4826632;29;20093;-73
2021/10/05 17:34:03;;;;;;;15.45;3.92;;;18.50;79.30;;;;;;4826169;29;20351;-70
2021/10/05 17:36:29;;;;;;;15.07;3.85;;;18.50;79.40;;;;;;4825645;29;20166;-72
2021/10/05 17:38:55;;;;;;;10.85;3.58;;;18.50;79.30;;;;;;4805825;29;20062;-71
2021/10/05 17:41:21;;;;;;;12.38;3.35;;;18.50;79.20;;;;;;4808049;29;20137;-71
2021/10/05 17:43:47;;;;;;;10.63;3.42;;;18.50;78.10;;;;;;4808105;29;20465;-71
2021/10/05 17:46:15;;;;;;;11.75;3.33;;;18.50;78.40;;;;;;4807890;29;20363;-70
2021/10/05 17:48:41;;;;;;;18.48;3.63;;;18.50;78.50;;;;;;4807621;29;20397;-72
2021/10/05 17:51:07;;;;;;;8.95;3.28;;;18.50;78.50;;;;;;4807765;29;20058;-71
2021/10/05 17:53:33;;;;;;;10.23;3.20;;;18.50;78.50;;;;;;4807939;29;20070;-71
2021/10/05 17:55:58;;;;;;;8.85;3.55;;;18.50;78.50;;;;;;4792229;29;20069;-71
2021/10/05 17:58:24;;;;;;;9.82;2.60;;;18.50;78.40;;;;;;4791686;29;20054;-70
2021/10/05 18:00:50;;;;;;;7.93;2.55;;;18.50;78.20;;;;;;4807827;29;20134;-71
2021/10/05 18:03:16;;;;;;;10.77;2.88;;;18.50;78.10;;;;;;4807423;29;20051;-71
2021/10/05 18:05:41;;;;;;;10.27;3.15;;;18.50;77.90;;;;;;4807619;29;20447;-70
2021/10/05 18:08:07;;;;;;;9.48;2.70;;;18.40;77.70;;;;;;4807746;29;20053;-72
2021/10/05 18:10:35;;;;;;;8.57;2.70;;;18.50;77.60;;;;;;4807566;29;20348;-70
2021/10/05 18:13:03;;;;;;;9.88;2.50;;;18.40;76.70;;;;;;4791817;29;20368;-71
2021/10/05 18:15:29;;;;;;;14.65;3.00;;;18.40;77.10;;;;;;4808051;29;20051;-70
